sensor_id;sensor_type;location;lat;lon;timestamp;pressure;altitude;pressure_sealevel;temperature;humidity
68226;BME280;55045;49.410;11.030;2023-04-25T00:01:53;97345.03;;;7.57;100.00
68226;BME280;55045;49.410;11.030;2023-04-25T00:04:56;97347.22;;;7.64;100.00
68226;BME280;55045;49.410;11.030;2023-04-25T00:08:03;97344.97;;;7.58;100.00
68226;BME280;55045;49.410;11.030;2023-04-25T00:11:06;97333.41;;;7.65;100.00
68226;BME280;55045;49.410;11.030;2023-04-25T00:14:09;97337.66;;;7.49;100.00
68226;BME280;55045;49.410;11.030;2023-04-25T00:17:13;97348.41;;;7.40;100.00
68226;BME280;55045;49.410;11.030;2023-04-25T00:20:17;97358.16;;;7.87;100.00
68226;BME280;55045;49.410;11.030;2023-04-25T00:23:21;97361.81;;;7.48;100.00
68226;BME280;55045;49.410;11.030;2023-04-25T00:26:26;97360.19;;;7.45;100.00
68226;BME280;55045;49.410;11.030;2023-04-25T00:29:30;97360.19;;;7.45;100.00
68226;BME280;55045;49.410;11.030;2023-04-25T00:32:33;97367.00;;;7.29;100.00
68226;BME280;55045;49.410;11.030;2023-04-25T00:35:36;97341.28;;;7.09;100.00
68226;BME280;55045;49.410;11.030;2023-04-25T00:38:41;97359.59;;;7.21;100.00
68226;BME280;55045;49.410;11.030;2023-04-25T00:41:45;97356.47;;;7.15;100.00
68226;BME280;55045;49.410;11.030;2023-04-25T00:44:49;97336.63;;;7.17;100.00
68226;BME280;55045;49.410;11.030;2023-04-25T00:47:53;97352.94;;;7.17;100.00
68226;BME280;55045;49.410;11.030;2023-04-25T00:50:58;97340.66;;;7.04;100.00
68226;BME280;55045;49.410;11.030;2023-04-25T00:54:03;97366.50;;;7.02;100.00
68226;BME280;55045;49.410;11.030;2023-04-25T00:57:07;97363.66;;;7.08;100.00
68226;BME280;55045;49.410;11.030;2023-04-25T01:00:10;97353.78;;;6.99;100.00
68226;BME280;55045;49.410;11.030;2023-04-25T01:03:16;97364.28;;;6.94;100.00
68226;BME280;55045;49.410;11.030;2023-04-25T01:06:22;97332.16;;;7.02;100.00
68226;BME280;55045;49.410;11.030;2023-04-25T01:09:27;97351.53;;;7.10;100.00
68226;BME280;55045;49.410;11.030;2023-04-25T01:12:30;97337.88;;;7.08;100.00
68226;BME280;55045;49.410;11.030;2023-04-25T01:15:34;97347.13;;;7.12;100.00
68226;BME280;55045;49.410;11.030;2023-04-25T01:18:38;97326.31;;;6.98;100.00
68226;BME280;55045;49.410;11.030;2023-04-25T01:21:43;97349.88;;;7.09;100.00
68226;BME280;55045;49.410;11.030;2023-04-25T01:24:48;97335.94;;;6.94;100.00
68226;BME280;55045;49.410;11.030;2023-04-25T01:27:51;97317.84;;;6.96;100.00
68226;BME280;55045;49.410;11.030;2023-04-25T01:30:56;97323.00;;;7.32;100.00
68226;BME280;55045;49.410;11.030;2023-04-25T01:33:59;97329.72;;;7.17;100.00
68226;BME280;55045;49.410;11.030;2023-04-25T01:37:05;97338.31;;;6.80;100.00
68226;BME280;55045;49.410;11.030;2023-04-25T01:40:09;97323.41;;;6.68;100.00
68226;BME280;55045;49.410;11.030;2023-04-25T01:43:13;97353.84;;;6.98;100.00
68226;BME280;55045;49.410;11.030;2023-04-25T01:46:17;97325.50;;;6.79;100.00
68226;BME280;55045;49.410;11.030;2023-04-25T01:49:20;97334.22;;;6.95;100.00
68226;BME280;55045;49.410;11.030;2023-04-25T01:52:27;97350.13;;;7.03;100.00
68226;BME280;55045;49.410;11.030;2023-04-25T01:55:31;97339.97;;;6.81;100.00
68226;BME280;55045;49.410;11.030;2023-04-25T01:58:42;97357.13;;;7.01;100.00
68226;BME280;55045;49.410;11.030;2023-04-25T02:02:05;97323.75;;;6.98;100.00
68226;BME280;55045;49.410;11.030;2023-04-25T02:05:10;97353.94;;;6.96;100.00
68226;BME280;55045;49.410;11.030;2023-04-25T02:08:18;97347.78;;;6.80;100.00
68226;BME280;55045;49.410;11.030;2023-04-25T02:11:21;97342.06;;;6.54;100.00
68226;BME280;55045;49.410;11.030;2023-04-25T02:14:44;97344.84;;;6.69;100.00
68226;BME280;55045;49.410;11.030;2023-04-25T02:18:20;97340.75;;;6.64;100.00
68226;BME280;55045;49.410;11.030;2023-04-25T02:21:24;97347.78;;;6.99;100.00
68226;BME280;55045;49.410;11.030;2023-04-25T02:24:30;97304.72;;;6.25;100.00
68226;BME280;55045;49.410;11.030;2023-04-25T02:27:33;97322.34;;;6.53;100.00
68226;BME280;55045;49.410;11.030;2023-04-25T02:30:39;97353.81;;;6.60;100.00
68226;BME280;55045;49.410;11.030;2023-04-25T02:33:42;97351.00;;;6.66;100.00
68226;BME280;55045;49.410;11.030;2023-04-25T02:36:46;97298.19;;;6.37;100.00
68226;BME280;55045;49.410;11.030;2023-04-25T02:39:53;97339.34;;;6.57;100.00
68226;BME280;55045;49.410;11.030;2023-04-25T02:42:56;97314.00;;;6.48;100.00
68226;BME280;55045;49.410;11.030;2023-04-25T02:46:01;97327.09;;;6.44;100.00
68226;BME280;55045;49.410;11.030;2023-04-25T02:49:04;97333.84;;;6.46;100.00
68226;BME280;55045;49.410;11.030;2023-04-25T02:52:09;97314.81;;;6.30;100.00
68226;BME280;55045;49.410;11.030;2023-04-25T02:55:14;97305.16;;;6.35;100.00
68226;BME280;55045;49.410;11.030;2023-04-25T02:58:18;97330.50;;;6.44;100.00
68226;BME280;55045;49.410;11.030;2023-04-25T03:01:24;97322.34;;;6.34;100.00
68226;BME280;55045;49.410;11.030;2023-04-25T03:04:27;97316.41;;;6.32;100.00
68226;BME280;55045;49.410;11.030;2023-04-25T03:07:31;97305.81;;;6.20;100.00
68226;BME280;55045;49.410;11.030;2023-04-25T03:10:35;97319.78;;;6.34;100.00
68226;BME280;55045;49.410;11.030;2023-04-25T03:13:41;97323.25;;;6.52;100.00
68226;BME280;55045;49.410;11.030;2023-04-25T03:16:45;97318.94;;;6.34;100.00
68226;BME280;55045;49.410;11.030;2023-04-25T03:19:48;97325.44;;;6.22;100.00
68226;BME280;55045;49.410;11.030;2023-04-25T03:22:52;97299.53;;;6.06;100.00
68226;BME280;55045;49.410;11.030;2023-04-25T03:25:57;97315.16;;;6.41;100.00
68226;BME280;55045;49.410;11.030;2023-04-25T03:29:00;97275.13;;;6.15;100.00
68226;BME280;55045;49.410;11.030;2023-04-25T03:34:49;97316.00;;;6.42;100.00
68226;BME280;55045;49.410;11.030;2023-04-25T03:37:52;97297.94;;;6.23;100.00
68226;BME280;55045;49.410;11.030;2023-04-25T03:41:01;97310.34;;;6.15;100.00
68226;BME280;55045;49.410;11.030;2023-04-25T03:44:21;97309.34;;;6.17;100.00
68226;BME280;55045;49.410;11.030;2023-04-25T03:47:26;97240.72;;;5.77;100.00
68226;BME280;55045;49.410;11.030;2023-04-25T03:50:32;97308.66;;;6.14;100.00
68226;BME280;55045;49.410;11.030;2023-04-25T03:53:35;97315.34;;;6.76;100.00
68226;BME280;55045;49.410;11.030;2023-04-25T03:56:54;97308.47;;;5.98;100.00
68226;BME280;55045;49.410;11.030;2023-04-25T04:00:01;97317.22;;;6.14;100.00
68226;BME280;55045;49.410;11.030;2023-04-25T04:03:14;97307.56;;;5.99;100.00
68226;BME280;55045;49.410;11.030;2023-04-25T04:06:19;97317.56;;;6.06;100.00
68226;BME280;55045;49.410;11.030;2023-04-25T04:09:28;97289.03;;;5.91;100.00
68226;BME280;55045;49.410;11.030;2023-04-25T04:12:34;97320.84;;;6.29;100.00
68226;BME280;55045;49.410;11.030;2023-04-25T04:15:37;97317.59;;;6.25;100.00
68226;BME280;55045;49.410;11.030;2023-04-25T04:18:41;97308.38;;;6.20;100.00
68226;BME280;55045;49.410;11.030;2023-04-25T04:21:45;97317.44;;;6.28;100.00
68226;BME280;55045;49.410;11.030;2023-04-25T04:24:48;97323.75;;;6.21;100.00
68226;BME280;55045;49.410;11.030;2023-04-25T04:28:24;97301.41;;;6.22;100.00
68226;BME280;55045;49.410;11.030;2023-04-25T04:31:36;97324.91;;;6.34;100.00
68226;BME280;55045;49.410;11.030;2023-04-25T04:34:40;97321.97;;;6.42;100.00
68226;BME280;55045;49.410;11.030;2023-04-25T04:37:48;97313.22;;;6.46;100.00
68226;BME280;55045;49.410;11.030;2023-04-25T04:40:54;97308.59;;;6.54;100.00
68226;BME280;55045;49.410;11.030;2023-04-25T04:44:15;97307.09;;;6.49;100.00
68226;BME280;55045;49.410;11.030;2023-04-25T04:47:40;97259.47;;;6.20;100.00
68226;BME280;55045;49.410;11.030;2023-04-25T04:50:53;97321.31;;;6.57;100.00
68226;BME280;55045;49.410;11.030;2023-04-25T04:54:17;97319.66;;;6.56;100.00
68226;BME280;55045;49.410;11.030;2023-04-25T04:57:44;97321.75;;;6.67;100.00
68226;BME280;55045;49.410;11.030;2023-04-25T05:01:07;97300.72;;;6.57;100.00
68226;BME280;55045;49.410;11.030;2023-04-25T05:04:29;97325.06;;;6.69;100.00
68226;BME280;55045;49.410;11.030;2023-04-25T05:07:40;97325.16;;;6.68;100.00
68226;BME280;55045;49.410;11.030;2023-04-25T05:11:20;97322.50;;;6.69;100.00
68226;BME280;55045;49.410;11.030;2023-04-25T05:14:44;97332.47;;;6.77;100.00
68226;BME280;55045;49.410;11.030;2023-04-25T05:18:06;97330.22;;;6.69;100.00
68226;BME280;55045;49.410;11.030;2023-04-25T05:21:28;97242.09;;;6.25;100.00
68226;BME280;55045;49.410;11.030;2023-04-25T05:25:03;97286.41;;;6.50;100.00
68226;BME280;55045;49.410;11.030;2023-04-25T05:28:25;97320.59;;;6.73;100.00
68226;BME280;55045;49.410;11.030;2023-04-25T05:31:47;97332.66;;;6.72;100.00
68226;BME280;55045;49.410;11.030;2023-04-25T05:34:52;97330.50;;;6.82;100.00
68226;BME280;55045;49.410;11.030;2023-04-25T05:38:10;97323.13;;;6.74;100.00
68226;BME280;55045;49.410;11.030;2023-04-25T05:41:46;97338.16;;;6.83;100.00
68226;BME280;55045;49.410;11.030;2023-04-25T05:45:14;97323.13;;;6.74;100.00
68226;BME280;55045;49.410;11.030;2023-04-25T05:48:40;97311.91;;;6.56;100.00
68226;BME280;55045;49.410;11.030;2023-04-25T05:51:55;97348.97;;;6.91;100.00
68226;BME280;55045;49.410;11.030;2023-04-25T05:55:30;97344.22;;;6.82;100.00
68226;BME280;55045;49.410;11.030;2023-04-25T05:58:37;97314.22;;;6.81;100.00
68226;BME280;55045;49.410;11.030;2023-04-25T06:01:42;97332.66;;;6.91;100.00
68226;BME280;55045;49.410;11.030;2023-04-25T06:04:45;97355.09;;;6.89;100.00
68226;BME280;55045;49.410;11.030;2023-04-25T06:07:50;97340.31;;;6.74;100.00
68226;BME280;55045;49.410;11.030;2023-04-25T06:10:53;97350.72;;;6.91;100.00
68226;BME280;55045;49.410;11.030;2023-04-25T06:13:57;97354.19;;;6.90;100.00
68226;BME280;55045;49.410;11.030;2023-04-25T06:17:02;97348.34;;;7.05;100.00
68226;BME280;55045;49.410;11.030;2023-04-25T06:20:09;97360.94;;;6.92;100.00
68226;BME280;55045;49.410;11.030;2023-04-25T06:23:14;97352.09;;;6.98;100.00
68226;BME280;55045;49.410;11.030;2023-04-25T06:26:26;97358.28;;;6.94;100.00
68226;BME280;55045;49.410;11.030;2023-04-25T06:29:29;97355.59;;;6.97;100.00
68226;BME280;55045;49.410;11.030;2023-04-25T06:32:34;97360.75;;;6.97;100.00
68226;BME280;55045;49.410;11.030;2023-04-25T06:35:38;97351.13;;;6.82;100.00
68226;BME280;55045;49.410;11.030;2023-04-25T06:38:45;97358.44;;;6.91;100.00
68226;BME280;55045;49.410;11.030;2023-04-25T06:41:49;97371.63;;;6.85;100.00
68226;BME280;55045;49.410;11.030;2023-04-25T06:45:12;97386.28;;;6.25;100.00
68226;BME280;55045;49.410;11.030;2023-04-25T06:48:17;97428.16;;;6.49;100.00
68226;BME280;55045;49.410;11.030;2023-04-25T06:51:21;97397.97;;;6.32;100.00
68226;BME280;55045;49.410;11.030;2023-04-25T06:54:28;97400.31;;;6.77;100.00
68226;BME280;55045;49.410;11.030;2023-04-25T06:57:40;97394.75;;;6.47;100.00
68226;BME280;55045;49.410;11.030;2023-04-25T07:01:09;97404.28;;;6.45;100.00
68226;BME280;55045;49.410;11.030;2023-04-25T07:04:14;97380.59;;;6.37;100.00
68226;BME280;55045;49.410;11.030;2023-04-25T07:07:28;97386.63;;;6.56;100.00
68226;BME280;55045;49.410;11.030;2023-04-25T07:10:33;97381.59;;;6.53;100.00
68226;BME280;55045;49.410;11.030;2023-04-25T07:13:38;97397.56;;;6.61;100.00
68226;BME280;55045;49.410;11.030;2023-04-25T07:16:41;97379.91;;;6.91;100.00
68226;BME280;55045;49.410;11.030;2023-04-25T07:19:46;97397.88;;;6.93;100.00
68226;BME280;55045;49.410;11.030;2023-04-25T07:22:49;97353.63;;;6.83;100.00
68226;BME280;55045;49.410;11.030;2023-04-25T07:25:53;97392.63;;;7.32;100.00
68226;BME280;55045;49.410;11.030;2023-04-25T07:29:00;97392.94;;;7.07;100.00
68226;BME280;55045;49.410;11.030;2023-04-25T07:32:03;97386.38;;;7.19;100.00
68226;BME280;55045;49.410;11.030;2023-04-25T07:35:10;97396.41;;;6.87;100.00
68226;BME280;55045;49.410;11.030;2023-04-25T07:38:13;97386.09;;;6.69;100.00
68226;BME280;55045;49.410;11.030;2023-04-25T07:41:16;97392.94;;;6.49;100.00
68226;BME280;55045;49.410;11.030;2023-04-25T07:44:21;97364.47;;;6.52;100.00
68226;BME280;55045;49.410;11.030;2023-04-25T07:47:24;97395.78;;;6.43;100.00
68226;BME280;55045;49.410;11.030;2023-04-25T07:50:29;97416.31;;;6.65;100.00
68226;BME280;55045;49.410;11.030;2023-04-25T07:53:33;97407.91;;;6.21;100.00
68226;BME280;55045;49.410;11.030;2023-04-25T07:56:41;97396.19;;;6.14;100.00
68226;BME280;55045;49.410;11.030;2023-04-25T07:59:54;97430.38;;;6.38;100.00
68226;BME280;55045;49.410;11.030;2023-04-25T08:02:58;97447.94;;;6.48;100.00
68226;BME280;55045;49.410;11.030;2023-04-25T08:06:03;97428.47;;;6.00;100.00
68226;BME280;55045;49.410;11.030;2023-04-25T08:09:16;97420.13;;;5.73;100.00
68226;BME280;55045;49.410;11.030;2023-04-25T08:12:19;97456.44;;;5.66;100.00
68226;BME280;55045;49.410;11.030;2023-04-25T08:15:25;97398.28;;;5.18;100.00
68226;BME280;55045;49.410;11.030;2023-04-25T08:18:29;97440.28;;;5.84;100.00
68226;BME280;55045;49.410;11.030;2023-04-25T08:21:34;97464.16;;;5.66;100.00
68226;BME280;55045;49.410;11.030;2023-04-25T08:24:41;97464.66;;;5.97;100.00
68226;BME280;55045;49.410;11.030;2023-04-25T08:27:44;97465.22;;;5.82;100.00
68226;BME280;55045;49.410;11.030;2023-04-25T08:30:47;97461.31;;;5.95;100.00
68226;BME280;55045;49.410;11.030;2023-04-25T08:33:52;97467.59;;;6.51;100.00
68226;BME280;55045;49.410;11.030;2023-04-25T08:37:04;97466.41;;;6.17;100.00
68226;BME280;55045;49.410;11.030;2023-04-25T08:40:15;97440.16;;;6.50;100.00
68226;BME280;55045;49.410;11.030;2023-04-25T08:43:19;97436.81;;;6.27;100.00
68226;BME280;55045;49.410;11.030;2023-04-25T08:46:23;97457.78;;;6.79;100.00
68226;BME280;55045;49.410;11.030;2023-04-25T08:49:45;97441.56;;;7.34;100.00
68226;BME280;55045;49.410;11.030;2023-04-25T08:52:53;97457.78;;;7.55;100.00
68226;BME280;55045;49.410;11.030;2023-04-25T08:55:59;97400.44;;;6.93;100.00
68226;BME280;55045;49.410;11.030;2023-04-25T08:59:05;97425.13;;;7.17;100.00
68226;BME280;55045;49.410;11.030;2023-04-25T09:02:11;97455.53;;;7.30;100.00
68226;BME280;55045;49.410;11.030;2023-04-25T09:05:17;97429.66;;;8.21;100.00
68226;BME280;55045;49.410;11.030;2023-04-25T09:08:27;97441.81;;;7.65;100.00
68226;BME280;55045;49.410;11.030;2023-04-25T09:11:32;97459.84;;;7.48;100.00
68226;BME280;55045;49.410;11.030;2023-04-25T09:14:38;97418.78;;;6.87;100.00
68226;BME280;55045;49.410;11.030;2023-04-25T09:17:55;97471.59;;;7.35;100.00
68226;BME280;55045;49.410;11.030;2023-04-25T09:21:08;97456.22;;;6.96;100.00
68226;BME280;55045;49.410;11.030;2023-04-25T09:24:32;97478.59;;;7.33;100.00
68226;BME280;55045;49.410;11.030;2023-04-25T09:27:36;97474.59;;;7.44;100.00
68226;BME280;55045;49.410;11.030;2023-04-25T09:34:50;97465.19;;;8.85;100.00
68226;BME280;55045;49.410;11.030;2023-04-25T09:37:55;97443.19;;;8.60;100.00
68226;BME280;55045;49.410;11.030;2023-04-25T09:41:23;97441.84;;;8.53;100.00
68226;BME280;55045;49.410;11.030;2023-04-25T09:44:28;97453.06;;;9.03;100.00
68226;BME280;55045;49.410;11.030;2023-04-25T09:47:37;97459.78;;;9.22;100.00
68226;BME280;55045;49.410;11.030;2023-04-25T09:50:43;97456.66;;;9.16;100.00
68226;BME280;55045;49.410;11.030;2023-04-25T09:53:47;97452.75;;;8.76;100.00
68226;BME280;55045;49.410;11.030;2023-04-25T09:57:15;97450.22;;;8.41;100.00
68226;BME280;55045;49.410;11.030;2023-04-25T10:00:20;97472.47;;;8.44;100.00
68226;BME280;55045;49.410;11.030;2023-04-25T10:03:25;97477.53;;;8.28;100.00
68226;BME280;55045;49.410;11.030;2023-04-25T10:06:43;97430.56;;;8.02;100.00
68226;BME280;55045;49.410;11.030;2023-04-25T10:09:48;97467.59;;;8.72;100.00
68226;BME280;55045;49.410;11.030;2023-04-25T10:12:53;97423.34;;;8.61;100.00
68226;BME280;55045;49.410;11.030;2023-04-25T10:15:57;97365.03;;;7.88;100.00
68226;BME280;55045;49.410;11.030;2023-04-25T10:19:00;97470.03;;;8.41;100.00
68226;BME280;55045;49.410;11.030;2023-04-25T10:22:13;97464.16;;;8.89;100.00
68226;BME280;55045;49.410;11.030;2023-04-25T10:25:17;97464.56;;;8.97;100.00
68226;BME280;55045;49.410;11.030;2023-04-25T10:28:21;97455.03;;;8.98;100.00
68226;BME280;55045;49.410;11.030;2023-04-25T10:31:24;97398.31;;;8.94;100.00
68226;BME280;55045;49.410;11.030;2023-04-25T10:34:38;97428.56;;;9.10;100.00
68226;BME280;55045;49.410;11.030;2023-04-25T10:37:58;97454.53;;;9.24;100.00
68226;BME280;55045;49.410;11.030;2023-04-25T10:41:06;97454.53;;;9.56;100.00
68226;BME280;55045;49.410;11.030;2023-04-25T10:44:11;97439.16;;;9.21;100.00
68226;BME280;55045;49.410;11.030;2023-04-25T10:47:34;97453.84;;;9.20;100.00
68226;BME280;55045;49.410;11.030;2023-04-25T10:50:38;97448.94;;;9.32;100.00
68226;BME280;55045;49.410;11.030;2023-04-25T10:53:45;97378.91;;;10.10;100.00
68226;BME280;55045;49.410;11.030;2023-04-25T10:56:50;97447.94;;;10.86;100.00
68226;BME280;55045;49.410;11.030;2023-04-25T10:59:58;97417.81;;;10.69;100.00
68226;BME280;55045;49.410;11.030;2023-04-25T11:03:03;97449.81;;;10.98;100.00
68226;BME280;55045;49.410;11.030;2023-04-25T11:06:12;97457.47;;;10.27;100.00
68226;BME280;55045;49.410;11.030;2023-04-25T11:09:23;97455.38;;;10.18;100.00
68226;BME280;55045;49.410;11.030;2023-04-25T11:12:27;97425.28;;;9.69;100.00
68226;BME280;55045;49.410;11.030;2023-04-25T11:15:30;97449.78;;;10.09;100.00
68226;BME280;55045;49.410;11.030;2023-04-25T11:18:33;97436.34;;;10.91;100.00
68226;BME280;55045;49.410;11.030;2023-04-25T11:21:37;97330.44;;;10.13;100.00
68226;BME280;55045;49.410;11.030;2023-04-25T11:24:41;97447.38;;;10.81;100.00
68226;BME280;55045;49.410;11.030;2023-04-25T11:27:51;97383.03;;;9.69;100.00
68226;BME280;55045;49.410;11.030;2023-04-25T11:30:55;97423.75;;;9.97;100.00
68226;BME280;55045;49.410;11.030;2023-04-25T11:33:59;97452.56;;;9.91;100.00
68226;BME280;55045;49.410;11.030;2023-04-25T11:37:02;97460.16;;;10.25;100.00
68226;BME280;55045;49.410;11.030;2023-04-25T11:40:08;97412.22;;;9.87;98.43
68226;BME280;55045;49.410;11.030;2023-04-25T11:43:13;97439.91;;;9.86;97.63
68226;BME280;55045;49.410;11.030;2023-04-25T11:46:18;97460.00;;;10.13;96.29
68226;BME280;55045;49.410;11.030;2023-04-25T11:49:22;97372.94;;;9.64;97.25
68226;BME280;55045;49.410;11.030;2023-04-25T11:52:38;97455.16;;;10.22;96.46
68226;BME280;55045;49.410;11.030;2023-04-25T11:55:43;97466.00;;;10.73;97.89
68226;BME280;55045;49.410;11.030;2023-04-25T11:59:05;97473.13;;;11.41;94.31
68226;BME280;55045;49.410;11.030;2023-04-25T12:02:09;97470.13;;;11.75;90.48
68226;BME280;55045;49.410;11.030;2023-04-25T12:05:15;97452.38;;;11.12;91.30
68226;BME280;55045;49.410;11.030;2023-04-25T12:08:33;97413.59;;;10.24;89.04
68226;BME280;55045;49.410;11.030;2023-04-25T12:11:45;97473.16;;;10.84;89.76
68226;BME280;55045;49.410;11.030;2023-04-25T12:14:48;97471.31;;;11.14;87.04
68226;BME280;55045;49.410;11.030;2023-04-25T12:17:53;97435.34;;;10.94;87.85
68226;BME280;55045;49.410;11.030;2023-04-25T12:20:57;97287.38;;;9.96;88.81
68226;BME280;55045;49.410;11.030;2023-04-25T12:24:10;97477.97;;;10.76;91.07
68226;BME280;55045;49.410;11.030;2023-04-25T12:27:16;97462.09;;;10.66;89.17
68226;BME280;55045;49.410;11.030;2023-04-25T12:30:20;97498.16;;;10.85;89.52
68226;BME280;55045;49.410;11.030;2023-04-25T12:33:24;97501.66;;;10.70;90.33
68226;BME280;55045;49.410;11.030;2023-04-25T12:36:28;97450.56;;;10.42;90.63
68226;BME280;55045;49.410;11.030;2023-04-25T12:39:31;97491.22;;;10.85;90.71
68226;BME280;55045;49.410;11.030;2023-04-25T12:42:35;97457.34;;;10.58;88.48
68226;BME280;55045;49.410;11.030;2023-04-25T12:45:39;97462.31;;;10.33;89.42
68226;BME280;55045;49.410;11.030;2023-04-25T12:48:42;97492.53;;;10.48;90.73
68226;BME280;55045;49.410;11.030;2023-04-25T12:51:46;97443.97;;;9.90;89.85
68226;BME280;55045;49.410;11.030;2023-04-25T12:54:50;97525.25;;;10.65;93.00
68226;BME280;55045;49.410;11.030;2023-04-25T12:57:54;97506.59;;;10.44;93.35
68226;BME280;55045;49.410;11.030;2023-04-25T13:00:57;97528.56;;;10.53;96.29
68226;BME280;55045;49.410;11.030;2023-04-25T13:04:01;97532.00;;;10.53;98.50
68226;BME280;55045;49.410;11.030;2023-04-25T13:07:04;97447.50;;;9.73;94.73
68226;BME280;55045;49.410;11.030;2023-04-25T13:10:09;97538.06;;;10.06;94.90
68226;BME280;55045;49.410;11.030;2023-04-25T13:13:14;97525.69;;;10.12;95.78
68226;BME280;55045;49.410;11.030;2023-04-25T13:16:18;97538.41;;;10.32;95.91
68226;BME280;55045;49.410;11.030;2023-04-25T13:19:23;97520.41;;;10.59;96.48
68226;BME280;55045;49.410;11.030;2023-04-25T13:22:27;97521.16;;;10.31;92.75
68226;BME280;55045;49.410;11.030;2023-04-25T13:25:31;97538.00;;;10.24;93.73
68226;BME280;55045;49.410;11.030;2023-04-25T13:28:35;97521.69;;;10.22;93.82
68226;BME280;55045;49.410;11.030;2023-04-25T13:31:38;97538.00;;;10.24;93.80
68226;BME280;55045;49.410;11.030;2023-04-25T13:34:42;97539.78;;;10.37;93.42
68226;BME280;55045;49.410;11.030;2023-04-25T13:37:45;97549.84;;;10.44;92.78
68226;BME280;55045;49.410;11.030;2023-04-25T13:40:49;97554.50;;;10.37;92.49
68226;BME280;55045;49.410;11.030;2023-04-25T13:43:55;97516.50;;;10.06;91.59
68226;BME280;55045;49.410;11.030;2023-04-25T13:46:58;97552.25;;;10.31;90.76
68226;BME280;55045;49.410;11.030;2023-04-25T13:50:09;97526.44;;;10.29;94.18
68226;BME280;55045;49.410;11.030;2023-04-25T13:53:12;97332.19;;;8.24;95.19
68226;BME280;55045;49.410;11.030;2023-04-25T13:56:16;97575.41;;;9.87;98.38
68226;BME280;55045;49.410;11.030;2023-04-25T13:59:22;97509.47;;;9.45;100.00
68226;BME280;55045;49.410;11.030;2023-04-25T14:02:26;97558.94;;;9.72;99.75
68226;BME280;55045;49.410;11.030;2023-04-25T14:05:29;97514.81;;;9.09;100.00
68226;BME280;55045;49.410;11.030;2023-04-25T14:08:32;97587.47;;;10.03;100.00
68226;BME280;55045;49.410;11.030;2023-04-25T14:11:36;97568.97;;;9.78;100.00
68226;BME280;55045;49.410;11.030;2023-04-25T14:14:40;97586.69;;;9.86;99.38
68226;BME280;55045;49.410;11.030;2023-04-25T14:17:44;97593.22;;;9.60;99.56
68226;BME280;55045;49.410;11.030;2023-04-25T14:20:47;97579.53;;;9.58;100.00
68226;BME280;55045;49.410;11.030;2023-04-25T14:23:51;97556.72;;;9.48;100.00
68226;BME280;55045;49.410;11.030;2023-04-25T14:26:55;97507.84;;;8.93;100.00
68226;BME280;55045;49.410;11.030;2023-04-25T14:30:00;97598.84;;;9.68;100.00
68226;BME280;55045;49.410;11.030;2023-04-25T14:33:03;97587.97;;;9.45;100.00
68226;BME280;55045;49.410;11.030;2023-04-25T14:36:07;97571.72;;;9.26;100.00
68226;BME280;55045;49.410;11.030;2023-04-25T14:39:10;97611.13;;;9.31;100.00
68226;BME280;55045;49.410;11.030;2023-04-25T14:42:14;97591.81;;;9.04;100.00
68226;BME280;55045;49.410;11.030;2023-04-25T14:45:19;97627.25;;;9.19;100.00
68226;BME280;55045;49.410;11.030;2023-04-25T14:48:23;97625.38;;;9.22;100.00
68226;BME280;55045;49.410;11.030;2023-04-25T14:51:26;97588.78;;;8.95;100.00
68226;BME280;55045;49.410;11.030;2023-04-25T14:54:29;97589.56;;;8.80;100.00
68226;BME280;55045;49.410;11.030;2023-04-25T14:57:33;97632.31;;;9.22;100.00
68226;BME280;55045;49.410;11.030;2023-04-25T15:00:38;97606.75;;;9.49;100.00
68226;BME280;55045;49.410;11.030;2023-04-25T15:03:42;97638.28;;;9.40;100.00
68226;BME280;55045;49.410;11.030;2023-04-25T15:06:45;97632.50;;;9.52;100.00
68226;BME280;55045;49.410;11.030;2023-04-25T15:09:49;97642.31;;;9.45;100.00
68226;BME280;55045;49.410;11.030;2023-04-25T15:12:54;97610.66;;;9.73;100.00
68226;BME280;55045;49.410;11.030;2023-04-25T15:15:59;97589.22;;;9.21;100.00
68226;BME280;55045;49.410;11.030;2023-04-25T15:19:02;97643.78;;;9.67;100.00
68226;BME280;55045;49.410;11.030;2023-04-25T15:22:06;97616.13;;;9.51;100.00
68226;BME280;55045;49.410;11.030;2023-04-25T15:25:10;97615.66;;;9.10;100.00
68226;BME280;55045;49.410;11.030;2023-04-25T15:28:13;97647.13;;;9.36;100.00
68226;BME280;55045;49.410;11.030;2023-04-25T15:34:52;97572.06;;;8.85;100.00
68226;BME280;55045;49.410;11.030;2023-04-25T15:37:55;97662.34;;;9.07;100.00
68226;BME280;55045;49.410;11.030;2023-04-25T15:40:58;97586.72;;;8.68;100.00
68226;BME280;55045;49.410;11.030;2023-04-25T15:44:01;97660.59;;;8.90;100.00
68226;BME280;55045;49.410;11.030;2023-04-25T15:47:05;97663.63;;;8.99;100.00
68226;BME280;55045;49.410;11.030;2023-04-25T15:50:13;97650.03;;;8.95;100.00
68226;BME280;55045;49.410;11.030;2023-04-25T15:53:18;97641.94;;;9.53;100.00
68226;BME280;55045;49.410;11.030;2023-04-25T15:56:21;97660.06;;;9.36;100.00
68226;BME280;55045;49.410;11.030;2023-04-25T15:59:24;97664.34;;;9.70;100.00
68226;BME280;55045;49.410;11.030;2023-04-25T16:02:29;97637.38;;;9.06;100.00
68226;BME280;55045;49.410;11.030;2023-04-25T16:05:34;97602.34;;;8.83;100.00
68226;BME280;55045;49.410;11.030;2023-04-25T16:08:37;97673.00;;;9.18;100.00
68226;BME280;55045;49.410;11.030;2023-04-25T16:11:40;97663.09;;;9.27;100.00
68226;BME280;55045;49.410;11.030;2023-04-25T16:14:44;97679.00;;;9.19;100.00
68226;BME280;55045;49.410;11.030;2023-04-25T16:17:47;97636.22;;;8.77;100.00
68226;BME280;55045;49.410;11.030;2023-04-25T16:20:52;97672.94;;;9.20;100.00
68226;BME280;55045;49.410;11.030;2023-04-25T16:23:56;97585.34;;;8.43;100.00
68226;BME280;55045;49.410;11.030;2023-04-25T16:26:59;97651.31;;;8.86;100.00
68226;BME280;55045;49.410;11.030;2023-04-25T16:30:05;97667.59;;;9.06;100.00